sensor_id;sensor_type;location;lat;lon;timestamp;P1;durP1;ratioP1;P2;durP2;ratioP2
76284;SDS011;65096;50.998;7.098;2023-02-12T00:01:12;51.92;;;23.38;;
76284;SDS011;65096;50.998;7.098;2023-02-12T00:03:39;50.42;;;24.52;;
76284;SDS011;65096;50.998;7.098;2023-02-12T00:06:06;46.33;;;22.50;;
76284;SDS011;65096;50.998;7.098;2023-02-12T00:08:35;51.83;;;23.65;;
76284;SDS011;65096;50.998;7.098;2023-02-12T00:11:06;54.67;;;23.23;;
76284;SDS011;65096;50.998;7.098;2023-02-12T00:13:34;52.55;;;24.30;;
76284;SDS011;65096;50.998;7.098;2023-02-12T00:16:03;56.38;;;25.45;;
76284;SDS011;65096;50.998;7.098;2023-02-12T00:18:30;52.10;;;24.58;;
76284;SDS011;65096;50.998;7.098;2023-02-12T00:20:57;55.50;;;23.60;;
76284;SDS011;65096;50.998;7.098;2023-02-12T00:23:25;52.20;;;22.70;;
76284;SDS011;65096;50.998;7.098;2023-02-12T00:25:53;54.30;;;23.70;;
76284;SDS011;65096;50.998;7.098;2023-02-12T00:28:20;53.60;;;23.95;;
76284;SDS011;65096;50.998;7.098;2023-02-12T00:30:47;52.67;;;24.83;;
76284;SDS011;65096;50.998;7.098;2023-02-12T00:33:14;50.75;;;24.40;;
76284;SDS011;65096;50.998;7.098;2023-02-12T00:35:41;49.13;;;22.85;;
76284;SDS011;65096;50.998;7.098;2023-02-12T00:38:08;49.17;;;23.88;;
76284;SDS011;65096;50.998;7.098;2023-02-12T00:40:35;52.13;;;24.10;;
76284;SDS011;65096;50.998;7.098;2023-02-12T00:43:03;55.45;;;23.70;;
76284;SDS011;65096;50.998;7.098;2023-02-12T00:45:30;51.67;;;23.38;;
76284;SDS011;65096;50.998;7.098;2023-02-12T00:47:56;53.22;;;23.60;;
76284;SDS011;65096;50.998;7.098;2023-02-12T00:50:23;51.00;;;23.50;;
76284;SDS011;65096;50.998;7.098;2023-02-12T00:52:50;57.92;;;25.13;;
76284;SDS011;65096;50.998;7.098;2023-02-12T00:55:16;53.55;;;25.10;;
76284;SDS011;65096;50.998;7.098;2023-02-12T00:57:43;58.20;;;26.17;;
76284;SDS011;65096;50.998;7.098;2023-02-12T01:00:12;51.45;;;22.67;;
76284;SDS011;65096;50.998;7.098;2023-02-12T01:02:40;55.47;;;24.77;;
76284;SDS011;65096;50.998;7.098;2023-02-12T01:05:07;54.30;;;24.35;;
76284;SDS011;65096;50.998;7.098;2023-02-12T01:07:34;53.63;;;25.13;;
76284;SDS011;65096;50.998;7.098;2023-02-12T01:10:02;55.72;;;24.25;;
76284;SDS011;65096;50.998;7.098;2023-02-12T01:12:30;55.85;;;24.25;;
76284;SDS011;65096;50.998;7.098;2023-02-12T01:15:00;53.97;;;23.30;;
76284;SDS011;65096;50.998;7.098;2023-02-12T01:17:28;55.05;;;24.67;;
76284;SDS011;65096;50.998;7.098;2023-02-12T01:19:56;56.47;;;24.63;;
76284;SDS011;65096;50.998;7.098;2023-02-12T01:22:23;52.60;;;23.40;;
76284;SDS011;65096;50.998;7.098;2023-02-12T01:24:50;56.75;;;24.63;;
76284;SDS011;65096;50.998;7.098;2023-02-12T01:27:16;52.33;;;24.33;;
76284;SDS011;65096;50.998;7.098;2023-02-12T01:29:43;58.63;;;25.65;;
76284;SDS011;65096;50.998;7.098;2023-02-12T01:32:10;52.72;;;23.65;;
76284;SDS011;65096;50.998;7.098;2023-02-12T01:34:38;51.72;;;23.25;;
76284;SDS011;65096;50.998;7.098;2023-02-12T01:37:05;53.92;;;23.77;;
76284;SDS011;65096;50.998;7.098;2023-02-12T01:39:32;54.33;;;24.00;;
76284;SDS011;65096;50.998;7.098;2023-02-12T01:41:58;49.67;;;23.67;;
76284;SDS011;65096;50.998;7.098;2023-02-12T01:44:27;48.42;;;21.35;;
76284;SDS011;65096;50.998;7.098;2023-02-12T01:46:55;52.13;;;21.30;;
76284;SDS011;65096;50.998;7.098;2023-02-12T01:49:24;54.17;;;24.40;;
76284;SDS011;65096;50.998;7.098;2023-02-12T01:51:59;51.10;;;22.17;;
76284;SDS011;65096;50.998;7.098;2023-02-12T01:54:30;49.92;;;22.73;;
76284;SDS011;65096;50.998;7.098;2023-02-12T01:56:59;57.67;;;26.10;;
76284;SDS011;65096;50.998;7.098;2023-02-12T01:59:27;50.92;;;22.55;;
76284;SDS011;65096;50.998;7.098;2023-02-12T02:01:55;52.65;;;23.38;;
76284;SDS011;65096;50.998;7.098;2023-02-12T02:04:22;51.75;;;23.25;;
76284;SDS011;65096;50.998;7.098;2023-02-12T02:06:55;54.20;;;22.77;;
76284;SDS011;65096;50.998;7.098;2023-02-12T02:09:24;56.55;;;23.23;;
76284;SDS011;65096;50.998;7.098;2023-02-12T02:11:53;52.50;;;23.95;;
76284;SDS011;65096;50.998;7.098;2023-02-12T02:14:37;49.20;;;22.70;;
76284;SDS011;65096;50.998;7.098;2023-02-12T02:20:05;51.90;;;24.48;;
76284;SDS011;65096;50.998;7.098;2023-02-12T02:23:17;55.22;;;23.48;;
76284;SDS011;65096;50.998;7.098;2023-02-12T02:25:59;48.85;;;21.20;;
76284;SDS011;65096;50.998;7.098;2023-02-12T02:28:52;49.90;;;21.67;;
76284;SDS011;65096;50.998;7.098;2023-02-12T02:31:28;50.05;;;23.83;;
76284;SDS011;65096;50.998;7.098;2023-02-12T02:34:00;49.92;;;23.10;;
76284;SDS011;65096;50.998;7.098;2023-02-12T02:36:34;56.22;;;23.27;;
76284;SDS011;65096;50.998;7.098;2023-02-12T02:39:06;52.30;;;22.77;;
76284;SDS011;65096;50.998;7.098;2023-02-12T02:41:40;48.78;;;22.75;;
76284;SDS011;65096;50.998;7.098;2023-02-12T02:44:14;54.03;;;23.25;;
76284;SDS011;65096;50.998;7.098;2023-02-12T02:46:47;52.17;;;23.10;;
76284;SDS011;65096;50.998;7.098;2023-02-12T02:49:17;45.92;;;20.77;;
76284;SDS011;65096;50.998;7.098;2023-02-12T02:51:50;50.45;;;22.40;;
76284;SDS011;65096;50.998;7.098;2023-02-12T02:54:21;51.33;;;22.77;;
76284;SDS011;65096;50.998;7.098;2023-02-12T02:56:54;49.97;;;23.15;;
76284;SDS011;65096;50.998;7.098;2023-02-12T02:59:26;48.47;;;22.85;;
76284;SDS011;65096;50.998;7.098;2023-02-12T03:02:00;50.97;;;21.73;;
76284;SDS011;65096;50.998;7.098;2023-02-12T03:04:30;46.53;;;21.25;;
76284;SDS011;65096;50.998;7.098;2023-02-12T03:07:02;48.88;;;21.77;;
76284;SDS011;65096;50.998;7.098;2023-02-12T03:09:35;49.70;;;22.30;;
76284;SDS011;65096;50.998;7.098;2023-02-12T03:12:07;47.97;;;23.13;;
76284;SDS011;65096;50.998;7.098;2023-02-12T03:14:39;48.92;;;20.58;;
76284;SDS011;65096;50.998;7.098;2023-02-12T03:17:13;49.15;;;21.73;;
76284;SDS011;65096;50.998;7.098;2023-02-12T03:19:44;55.17;;;24.02;;
76284;SDS011;65096;50.998;7.098;2023-02-12T03:22:15;47.45;;;21.23;;
76284;SDS011;65096;50.998;7.098;2023-02-12T03:24:47;46.00;;;21.58;;
76284;SDS011;65096;50.998;7.098;2023-02-12T03:27:17;49.88;;;22.25;;
76284;SDS011;65096;50.998;7.098;2023-02-12T03:29:47;44.22;;;20.45;;
76284;SDS011;65096;50.998;7.098;2023-02-12T03:32:28;47.63;;;23.13;;
76284;SDS011;65096;50.998;7.098;2023-02-12T03:35:04;55.80;;;23.23;;
76284;SDS011;65096;50.998;7.098;2023-02-12T03:37:39;51.72;;;22.40;;
76284;SDS011;65096;50.998;7.098;2023-02-12T03:40:16;51.38;;;22.20;;
76284;SDS011;65096;50.998;7.098;2023-02-12T03:42:46;48.45;;;21.98;;
76284;SDS011;65096;50.998;7.098;2023-02-12T03:45:21;46.83;;;20.15;;
76284;SDS011;65096;50.998;7.098;2023-02-12T03:48:00;47.63;;;21.35;;
76284;SDS011;65096;50.998;7.098;2023-02-12T03:50:32;48.78;;;20.90;;
76284;SDS011;65096;50.998;7.098;2023-02-12T03:53:04;48.70;;;21.02;;
76284;SDS011;65096;50.998;7.098;2023-02-12T03:55:33;45.85;;;22.25;;
76284;SDS011;65096;50.998;7.098;2023-02-12T03:58:06;44.75;;;20.60;;
76284;SDS011;65096;50.998;7.098;2023-02-12T04:00:36;45.85;;;20.90;;
76284;SDS011;65096;50.998;7.098;2023-02-12T04:03:05;43.70;;;19.70;;
76284;SDS011;65096;50.998;7.098;2023-02-12T04:05:32;45.45;;;20.73;;
76284;SDS011;65096;50.998;7.098;2023-02-12T04:08:03;44.40;;;20.00;;
76284;SDS011;65096;50.998;7.098;2023-02-12T04:10:32;46.80;;;20.48;;
76284;SDS011;65096;50.998;7.098;2023-02-12T04:13:06;48.72;;;22.33;;
76284;SDS011;65096;50.998;7.098;2023-02-12T04:18:38;50.10;;;21.63;;
76284;SDS011;65096;50.998;7.098;2023-02-12T04:21:11;48.90;;;21.10;;
76284;SDS011;65096;50.998;7.098;2023-02-12T04:23:46;44.00;;;20.40;;
76284;SDS011;65096;50.998;7.098;2023-02-12T04:26:23;50.72;;;20.80;;
76284;SDS011;65096;50.998;7.098;2023-02-12T04:29:04;47.53;;;20.80;;
76284;SDS011;65096;50.998;7.098;2023-02-12T04:31:48;49.90;;;21.73;;
76284;SDS011;65096;50.998;7.098;2023-02-12T04:34:23;49.90;;;20.88;;
76284;SDS011;65096;50.998;7.098;2023-02-12T04:36:58;55.00;;;23.65;;
76284;SDS011;65096;50.998;7.098;2023-02-12T04:39:30;44.58;;;20.65;;
76284;SDS011;65096;50.998;7.098;2023-02-12T04:42:01;46.55;;;21.55;;
76284;SDS011;65096;50.998;7.098;2023-02-12T04:44:31;48.63;;;22.13;;
76284;SDS011;65096;50.998;7.098;2023-02-12T04:46:59;46.50;;;21.25;;
76284;SDS011;65096;50.998;7.098;2023-02-12T04:49:28;45.13;;;21.85;;
76284;SDS011;65096;50.998;7.098;2023-02-12T04:51:54;48.30;;;21.15;;
76284;SDS011;65096;50.998;7.098;2023-02-12T04:54:22;45.00;;;20.60;;
76284;SDS011;65096;50.998;7.098;2023-02-12T04:56:49;54.58;;;22.42;;
76284;SDS011;65096;50.998;7.098;2023-02-12T04:59:16;49.63;;;21.75;;
76284;SDS011;65096;50.998;7.098;2023-02-12T05:01:43;48.58;;;21.48;;
76284;SDS011;65096;50.998;7.098;2023-02-12T05:04:11;46.92;;;21.40;;
76284;SDS011;65096;50.998;7.098;2023-02-12T05:06:41;46.47;;;21.80;;
76284;SDS011;65096;50.998;7.098;2023-02-12T05:09:09;43.75;;;20.17;;
76284;SDS011;65096;50.998;7.098;2023-02-12T05:11:39;45.40;;;21.02;;
76284;SDS011;65096;50.998;7.098;2023-02-12T05:14:06;50.95;;;20.65;;
76284;SDS011;65096;50.998;7.098;2023-02-12T05:16:33;51.97;;;22.30;;
76284;SDS011;65096;50.998;7.098;2023-02-12T05:19:00;48.72;;;21.98;;
76284;SDS011;65096;50.998;7.098;2023-02-12T05:21:26;53.00;;;22.38;;
76284;SDS011;65096;50.998;7.098;2023-02-12T05:23:54;50.95;;;20.60;;
76284;SDS011;65096;50.998;7.098;2023-02-12T05:26:21;43.65;;;20.25;;
76284;SDS011;65096;50.998;7.098;2023-02-12T05:28:48;48.67;;;21.13;;
76284;SDS011;65096;50.998;7.098;2023-02-12T05:31:16;47.78;;;22.02;;
76284;SDS011;65096;50.998;7.098;2023-02-12T05:33:44;45.53;;;21.63;;
76284;SDS011;65096;50.998;7.098;2023-02-12T05:36:12;46.90;;;21.40;;
76284;SDS011;65096;50.998;7.098;2023-02-12T05:38:40;52.67;;;23.27;;
76284;SDS011;65096;50.998;7.098;2023-02-12T05:41:10;49.45;;;22.63;;
76284;SDS011;65096;50.998;7.098;2023-02-12T05:43:40;54.28;;;26.77;;
76284;SDS011;65096;50.998;7.098;2023-02-12T05:46:08;59.25;;;29.52;;
76284;SDS011;65096;50.998;7.098;2023-02-12T05:48:35;62.53;;;29.40;;
76284;SDS011;65096;50.998;7.098;2023-02-12T05:51:03;65.50;;;30.50;;
76284;SDS011;65096;50.998;7.098;2023-02-12T05:53:31;56.95;;;26.60;;
76284;SDS011;65096;50.998;7.098;2023-02-12T05:56:12;55.28;;;25.15;;
76284;SDS011;65096;50.998;7.098;2023-02-12T05:58:40;56.00;;;23.92;;
76284;SDS011;65096;50.998;7.098;2023-02-12T06:01:09;50.70;;;22.80;;
76284;SDS011;65096;50.998;7.098;2023-02-12T06:03:37;55.20;;;23.55;;
76284;SDS011;65096;50.998;7.098;2023-02-12T06:06:04;54.20;;;22.92;;
76284;SDS011;65096;50.998;7.098;2023-02-12T06:08:31;51.47;;;22.92;;
76284;SDS011;65096;50.998;7.098;2023-02-12T06:10:59;52.08;;;24.27;;
76284;SDS011;65096;50.998;7.098;2023-02-12T06:13:28;52.80;;;22.10;;
76284;SDS011;65096;50.998;7.098;2023-02-12T06:15:56;50.33;;;22.60;;
76284;SDS011;65096;50.998;7.098;2023-02-12T06:18:23;48.83;;;21.83;;
76284;SDS011;65096;50.998;7.098;2023-02-12T06:20:50;54.05;;;22.58;;
76284;SDS011;65096;50.998;7.098;2023-02-12T06:23:18;47.40;;;21.15;;
76284;SDS011;65096;50.998;7.098;2023-02-12T06:25:46;48.20;;;20.13;;
76284;SDS011;65096;50.998;7.098;2023-02-12T06:28:12;49.63;;;21.65;;
76284;SDS011;65096;50.998;7.098;2023-02-12T06:30:41;48.70;;;21.10;;
76284;SDS011;65096;50.998;7.098;2023-02-12T06:33:08;51.67;;;21.38;;
76284;SDS011;65096;50.998;7.098;2023-02-12T06:35:37;47.05;;;21.08;;
76284;SDS011;65096;50.998;7.098;2023-02-12T06:38:04;49.20;;;21.80;;
76284;SDS011;65096;50.998;7.098;2023-02-12T06:40:31;51.97;;;21.92;;
76284;SDS011;65096;50.998;7.098;2023-02-12T06:42:58;48.25;;;19.83;;
76284;SDS011;65096;50.998;7.098;2023-02-12T06:45:25;49.10;;;21.33;;
76284;SDS011;65096;50.998;7.098;2023-02-12T06:47:53;49.13;;;22.52;;
76284;SDS011;65096;50.998;7.098;2023-02-12T06:50:20;50.10;;;22.25;;
76284;SDS011;65096;50.998;7.098;2023-02-12T06:52:46;53.20;;;22.30;;
76284;SDS011;65096;50.998;7.098;2023-02-12T06:55:13;47.78;;;22.23;;
76284;SDS011;65096;50.998;7.098;2023-02-12T06:57:40;49.33;;;20.48;;
76284;SDS011;65096;50.998;7.098;2023-02-12T07:00:07;53.33;;;22.83;;
76284;SDS011;65096;50.998;7.098;2023-02-12T07:02:35;49.08;;;20.60;;
76284;SDS011;65096;50.998;7.098;2023-02-12T07:05:03;46.78;;;20.38;;
76284;SDS011;65096;50.998;7.098;2023-02-12T07:07:31;49.33;;;21.67;;
76284;SDS011;65096;50.998;7.098;2023-02-12T07:09:57;51.78;;;22.02;;
76284;SDS011;65096;50.998;7.098;2023-02-12T07:12:24;53.85;;;23.05;;
76284;SDS011;65096;50.998;7.098;2023-02-12T07:14:51;49.92;;;21.77;;
76284;SDS011;65096;50.998;7.098;2023-02-12T07:17:17;46.05;;;20.77;;
76284;SDS011;65096;50.998;7.098;2023-02-12T07:19:44;46.17;;;20.90;;
76284;SDS011;65096;50.998;7.098;2023-02-12T07:22:12;48.97;;;21.38;;
76284;SDS011;65096;50.998;7.098;2023-02-12T07:24:39;52.63;;;22.75;;
76284;SDS011;65096;50.998;7.098;2023-02-12T07:27:05;53.45;;;22.33;;
76284;SDS011;65096;50.998;7.098;2023-02-12T07:29:32;51.13;;;21.02;;
76284;SDS011;65096;50.998;7.098;2023-02-12T07:31:59;56.22;;;23.27;;
76284;SDS011;65096;50.998;7.098;2023-02-12T07:34:26;47.47;;;21.58;;
76284;SDS011;65096;50.998;7.098;2023-02-12T07:36:52;50.92;;;23.27;;
76284;SDS011;65096;50.998;7.098;2023-02-12T07:39:20;44.55;;;21.40;;
76284;SDS011;65096;50.998;7.098;2023-02-12T07:41:47;51.13;;;22.30;;
76284;SDS011;65096;50.998;7.098;2023-02-12T07:44:14;48.15;;;20.30;;
76284;SDS011;65096;50.998;7.098;2023-02-12T07:46:42;56.30;;;24.40;;
76284;SDS011;65096;50.998;7.098;2023-02-12T07:49:10;51.47;;;22.80;;
76284;SDS011;65096;50.998;7.098;2023-02-12T07:51:38;55.58;;;24.52;;
76284;SDS011;65096;50.998;7.098;2023-02-12T07:54:06;46.70;;;21.33;;
76284;SDS011;65096;50.998;7.098;2023-02-12T07:56:34;58.75;;;26.45;;
76284;SDS011;65096;50.998;7.098;2023-02-12T07:59:03;62.80;;;27.48;;
76284;SDS011;65096;50.998;7.098;2023-02-12T08:01:32;61.15;;;25.17;;
76284;SDS011;65096;50.998;7.098;2023-02-12T08:04:01;62.45;;;25.50;;
76284;SDS011;65096;50.998;7.098;2023-02-12T08:06:31;58.40;;;25.65;;
76284;SDS011;65096;50.998;7.098;2023-02-12T08:09:00;58.05;;;24.60;;
76284;SDS011;65096;50.998;7.098;2023-02-12T08:11:29;50.63;;;23.02;;
76284;SDS011;65096;50.998;7.098;2023-02-12T08:13:58;53.95;;;24.20;;
76284;SDS011;65096;50.998;7.098;2023-02-12T08:16:26;55.63;;;23.85;;
76284;SDS011;65096;50.998;7.098;2023-02-12T08:18:56;57.60;;;25.13;;
76284;SDS011;65096;50.998;7.098;2023-02-12T08:21:24;54.67;;;25.77;;
76284;SDS011;65096;50.998;7.098;2023-02-12T08:23:52;61.38;;;25.52;;
76284;SDS011;65096;50.998;7.098;2023-02-12T08:26:20;55.28;;;24.95;;
76284;SDS011;65096;50.998;7.098;2023-02-12T08:28:48;61.97;;;26.17;;
76284;SDS011;65096;50.998;7.098;2023-02-12T08:31:20;59.83;;;26.35;;
76284;SDS011;65096;50.998;7.098;2023-02-12T08:33:48;62.42;;;25.65;;
76284;SDS011;65096;50.998;7.098;2023-02-12T08:36:16;59.05;;;25.95;;
76284;SDS011;65096;50.998;7.098;2023-02-12T08:38:45;64.32;;;26.45;;
76284;SDS011;65096;50.998;7.098;2023-02-12T08:41:13;56.55;;;26.33;;
76284;SDS011;65096;50.998;7.098;2023-02-12T08:43:42;57.30;;;25.52;;
76284;SDS011;65096;50.998;7.098;2023-02-12T08:46:10;62.28;;;26.50;;
76284;SDS011;65096;50.998;7.098;2023-02-12T08:48:43;58.08;;;25.52;;
76284;SDS011;65096;50.998;7.098;2023-02-12T08:51:11;56.50;;;26.00;;
76284;SDS011;65096;50.998;7.098;2023-02-12T08:53:40;57.88;;;25.85;;
76284;SDS011;65096;50.998;7.098;2023-02-12T08:56:08;61.22;;;27.48;;
76284;SDS011;65096;50.998;7.098;2023-02-12T08:58:36;60.35;;;25.58;;
76284;SDS011;65096;50.998;7.098;2023-02-12T09:01:07;62.05;;;25.58;;
76284;SDS011;65096;50.998;7.098;2023-02-12T09:03:35;57.58;;;25.23;;
76284;SDS011;65096;50.998;7.098;2023-02-12T09:06:03;61.83;;;26.58;;
76284;SDS011;65096;50.998;7.098;2023-02-12T09:08:33;59.85;;;25.95;;
76284;SDS011;65096;50.998;7.098;2023-02-12T09:11:04;57.33;;;24.98;;
76284;SDS011;65096;50.998;7.098;2023-02-12T09:13:32;58.33;;;25.55;;
76284;SDS011;65096;50.998;7.098;2023-02-12T09:15:59;58.55;;;25.63;;
76284;SDS011;65096;50.998;7.098;2023-02-12T09:18:27;58.85;;;25.65;;
76284;SDS011;65096;50.998;7.098;2023-02-12T09:20:54;59.08;;;24.15;;
76284;SDS011;65096;50.998;7.098;2023-02-12T09:23:27;54.90;;;23.85;;
76284;SDS011;65096;50.998;7.098;2023-02-12T09:25:53;57.55;;;25.42;;
76284;SDS011;65096;50.998;7.098;2023-02-12T09:28:20;51.65;;;24.52;;
76284;SDS011;65096;50.998;7.098;2023-02-12T09:30:49;58.08;;;24.58;;
76284;SDS011;65096;50.998;7.098;2023-02-12T09:33:16;58.78;;;24.92;;
76284;SDS011;65096;50.998;7.098;2023-02-12T09:35:43;56.83;;;26.38;;
76284;SDS011;65096;50.998;7.098;2023-02-12T09:38:09;54.15;;;24.17;;
76284;SDS011;65096;50.998;7.098;2023-02-12T09:40:39;56.47;;;22.90;;
76284;SDS011;65096;50.998;7.098;2023-02-12T09:43:17;53.55;;;24.65;;
76284;SDS011;65096;50.998;7.098;2023-02-12T09:45:54;50.30;;;22.98;;
76284;SDS011;65096;50.998;7.098;2023-02-12T09:48:35;48.35;;;22.73;;
76284;SDS011;65096;50.998;7.098;2023-02-12T09:51:13;50.10;;;23.15;;
76284;SDS011;65096;50.998;7.098;2023-02-12T09:53:41;51.42;;;23.90;;
76284;SDS011;65096;50.998;7.098;2023-02-12T09:56:14;49.33;;;22.83;;
76284;SDS011;65096;50.998;7.098;2023-02-12T09:58:44;46.78;;;21.60;;
76284;SDS011;65096;50.998;7.098;2023-02-12T10:01:16;51.58;;;22.55;;
76284;SDS011;65096;50.998;7.098;2023-02-12T10:03:44;51.28;;;23.42;;
76284;SDS011;65096;50.998;7.098;2023-02-12T10:06:14;46.88;;;20.65;;
76284;SDS011;65096;50.998;7.098;2023-02-12T10:08:45;45.45;;;21.42;;
76284;SDS011;65096;50.998;7.098;2023-02-12T10:11:27;40.33;;;19.52;;
76284;SDS011;65096;50.998;7.098;2023-02-12T10:14:08;41.50;;;20.02;;
76284;SDS011;65096;50.998;7.098;2023-02-12T10:16:49;43.40;;;20.77;;
76284;SDS011;65096;50.998;7.098;2023-02-12T10:19:28;46.05;;;21.30;;
76284;SDS011;65096;50.998;7.098;2023-02-12T10:22:09;46.00;;;20.77;;
76284;SDS011;65096;50.998;7.098;2023-02-12T10:24:54;35.10;;;16.35;;
76284;SDS011;65096;50.998;7.098;2023-02-12T10:27:33;33.95;;;15.02;;
76284;SDS011;65096;50.998;7.098;2023-02-12T10:30:05;34.97;;;15.18;;
76284;SDS011;65096;50.998;7.098;2023-02-12T10:32:43;33.15;;;16.83;;
76284;SDS011;65096;50.998;7.098;2023-02-12T10:35:13;34.80;;;15.80;;
76284;SDS011;65096;50.998;7.098;2023-02-12T10:37:42;35.67;;;17.02;;
76284;SDS011;65096;50.998;7.098;2023-02-12T10:40:19;32.83;;;15.73;;
76284;SDS011;65096;50.998;7.098;2023-02-12T10:42:53;34.10;;;15.00;;
76284;SDS011;65096;50.998;7.098;2023-02-12T10:45:23;32.08;;;13.90;;
76284;SDS011;65096;50.998;7.098;2023-02-12T10:48:03;30.40;;;14.23;;
76284;SDS011;65096;50.998;7.098;2023-02-12T10:50:36;31.50;;;14.52;;
76284;SDS011;65096;50.998;7.098;2023-02-12T10:53:12;31.95;;;14.93;;
76284;SDS011;65096;50.998;7.098;2023-02-12T10:55:45;31.02;;;14.05;;
76284;SDS011;65096;50.998;7.098;2023-02-12T10:58:17;30.15;;;13.52;;
76284;SDS011;65096;50.998;7.098;2023-02-12T11:00:46;28.15;;;12.50;;
76284;SDS011;65096;50.998;7.098;2023-02-12T11:03:22;31.52;;;12.55;;
76284;SDS011;65096;50.998;7.098;2023-02-12T11:08:28;32.55;;;18.73;;
76284;SDS011;65096;50.998;7.098;2023-02-12T11:11:04;27.38;;;11.38;;
76284;SDS011;65096;50.998;7.098;2023-02-12T11:13:35;26.73;;;12.10;;
76284;SDS011;65096;50.998;7.098;2023-02-12T11:16:04;29.50;;;11.85;;
76284;SDS011;65096;50.998;7.098;2023-02-12T11:18:32;27.05;;;12.18;;
76284;SDS011;65096;50.998;7.098;2023-02-12T11:21:03;28.45;;;12.20;;
76284;SDS011;65096;50.998;7.098;2023-02-12T11:23:32;25.95;;;12.10;;
76284;SDS011;65096;50.998;7.098;2023-02-12T11:26:01;34.95;;;17.13;;
76284;SDS011;65096;50.998;7.098;2023-02-12T11:28:30;27.48;;;11.23;;
76284;SDS011;65096;50.998;7.098;2023-02-12T11:31:03;27.63;;;11.68;;
76284;SDS011;65096;50.998;7.098;2023-02-12T11:33:45;24.60;;;11.05;;
76284;SDS011;65096;50.998;7.098;2023-02-12T11:36:12;24.52;;;11.35;;
76284;SDS011;65096;50.998;7.098;2023-02-12T11:38:46;21.98;;;10.73;;
76284;SDS011;65096;50.998;7.098;2023-02-12T11:41:20;25.65;;;11.48;;
76284;SDS011;65096;50.998;7.098;2023-02-12T11:43:50;24.50;;;12.00;;
76284;SDS011;65096;50.998;7.098;2023-02-12T11:46:19;22.45;;;11.25;;
76284;SDS011;65096;50.998;7.098;2023-02-12T11:48:48;25.65;;;11.38;;
76284;SDS011;65096;50.998;7.098;2023-02-12T11:51:18;27.15;;;12.55;;
76284;SDS011;65096;50.998;7.098;2023-02-12T11:53:47;25.83;;;11.57;;
76284;SDS011;65096;50.998;7.098;2023-02-12T11:56:17;27.95;;;12.00;;
76284;SDS011;65096;50.998;7.098;2023-02-12T11:58:44;26.98;;;12.25;;
76284;SDS011;65096;50.998;7.098;2023-02-12T12:01:13;25.75;;;12.27;;
76284;SDS011;65096;50.998;7.098;2023-02-12T12:03:49;27.77;;;12.50;;
76284;SDS011;65096;50.998;7.098;2023-02-12T12:08:59;26.77;;;13.07;;
76284;SDS011;65096;50.998;7.098;2023-02-12T12:11:32;29.85;;;13.52;;
76284;SDS011;65096;50.998;7.098;2023-02-12T12:14:07;26.48;;;12.48;;
76284;SDS011;65096;50.998;7.098;2023-02-12T12:16:40;28.70;;;13.23;;
76284;SDS011;65096;50.998;7.098;2023-02-12T12:19:33;28.30;;;12.95;;
76284;SDS011;65096;50.998;7.098;2023-02-12T12:22:25;29.85;;;14.32;;
76284;SDS011;65096;50.998;7.098;2023-02-12T12:24:57;29.75;;;13.73;;
76284;SDS011;65096;50.998;7.098;2023-02-12T12:27:35;32.10;;;14.38;;
76284;SDS011;65096;50.998;7.098;2023-02-12T12:30:23;33.15;;;14.77;;
76284;SDS011;65096;50.998;7.098;2023-02-12T12:32:58;28.88;;;14.38;;
76284;SDS011;65096;50.998;7.098;2023-02-12T12:35:32;30.30;;;14.07;;
76284;SDS011;65096;50.998;7.098;2023-02-12T12:38:06;28.90;;;14.77;;
76284;SDS011;65096;50.998;7.098;2023-02-12T12:40:47;29.13;;;13.70;;
76284;SDS011;65096;50.998;7.098;2023-02-12T12:43:24;32.72;;;15.10;;
76284;SDS011;65096;50.998;7.098;2023-02-12T12:46:02;35.92;;;15.75;;
76284;SDS011;65096;50.998;7.098;2023-02-12T12:48:54;33.20;;;15.15;;
76284;SDS011;65096;50.998;7.098;2023-02-12T12:54:37;33.30;;;15.38;;
76284;SDS011;65096;50.998;7.098;2023-02-12T12:57:16;34.40;;;16.33;;
76284;SDS011;65096;50.998;7.098;2023-02-12T13:00:07;32.47;;;15.50;;
76284;SDS011;65096;50.998;7.098;2023-02-12T13:05:53;30.27;;;13.82;;
76284;SDS011;65096;50.998;7.098;2023-02-12T13:08:35;30.90;;;14.70;;
76284;SDS011;65096;50.998;7.098;2023-02-12T13:11:12;26.10;;;13.25;;
76284;SDS011;65096;50.998;7.098;2023-02-12T13:13:49;29.55;;;14.88;;
76284;SDS011;65096;50.998;7.098;2023-02-12T13:16:20;32.90;;;14.85;;
76284;SDS011;65096;50.998;7.098;2023-02-12T13:18:54;33.85;;;15.55;;
76284;SDS011;65096;50.998;7.098;2023-02-12T13:21:31;32.97;;;15.63;;
76284;SDS011;65096;50.998;7.098;2023-02-12T13:24:10;32.55;;;15.65;;
76284;SDS011;65096;50.998;7.098;2023-02-12T13:26:49;30.17;;;14.85;;
76284;SDS011;65096;50.998;7.098;2023-02-12T13:29:21;31.60;;;14.85;;
76284;SDS011;65096;50.998;7.098;2023-02-12T13:31:53;31.42;;;14.60;;
76284;SDS011;65096;50.998;7.098;2023-02-12T13:34:22;27.33;;;13.57;;
76284;SDS011;65096;50.998;7.098;2023-02-12T13:36:52;31.17;;;15.57;;
76284;SDS011;65096;50.998;7.098;2023-02-12T13:39:24;29.73;;;15.10;;
76284;SDS011;65096;50.998;7.098;2023-02-12T13:42:12;30.95;;;15.18;;
76284;SDS011;65096;50.998;7.098;2023-02-12T13:44:49;28.08;;;14.23;;
76284;SDS011;65096;50.998;7.098;2023-02-12T13:47:28;29.90;;;14.35;;
76284;SDS011;65096;50.998;7.098;2023-02-12T13:50:05;29.20;;;13.82;;
76284;SDS011;65096;50.998;7.098;2023-02-12T13:52:42;35.25;;;15.25;;
76284;SDS011;65096;50.998;7.098;2023-02-12T13:55:23;31.25;;;15.30;;
76284;SDS011;65096;50.998;7.098;2023-02-12T14:01:01;33.00;;;14.93;;
76284;SDS011;65096;50.998;7.098;2023-02-12T14:03:31;29.02;;;13.77;;
76284;SDS011;65096;50.998;7.098;2023-02-12T14:06:10;27.73;;;14.32;;
76284;SDS011;65096;50.998;7.098;2023-02-12T14:08:40;31.45;;;14.75;;
76284;SDS011;65096;50.998;7.098;2023-02-12T14:11:10;32.42;;;14.48;;
76284;SDS011;65096;50.998;7.098;2023-02-12T14:13:49;28.02;;;13.77;;
76284;SDS011;65096;50.998;7.098;2023-02-12T14:28:09;25.02;;;12.13;;
76284;SDS011;65096;50.998;7.098;2023-02-12T14:31:17;21.15;;;10.52;;
76284;SDS011;65096;50.998;7.098;2023-02-12T14:33:48;20.63;;;10.20;;
76284;SDS011;65096;50.998;7.098;2023-02-12T14:36:18;22.83;;;10.48;;
76284;SDS011;65096;50.998;7.098;2023-02-12T14:39:04;20.10;;;9.73;;
76284;SDS011;65096;50.998;7.098;2023-02-12T14:41:49;20.63;;;9.20;;
76284;SDS011;65096;50.998;7.098;2023-02-12T14:50:14;18.27;;;8.68;;
76284;SDS011;65096;50.998;7.098;2023-02-12T14:52:48;19.85;;;9.70;;
76284;SDS011;65096;50.998;7.098;2023-02-12T14:55:20;23.65;;;10.48;;
76284;SDS011;65096;50.998;7.098;2023-02-12T14:57:50;19.25;;;9.20;;
76284;SDS011;65096;50.998;7.098;2023-02-12T15:00:27;19.73;;;9.68;;
76284;SDS011;65096;50.998;7.098;2023-02-12T15:02:59;20.85;;;10.65;;
76284;SDS011;65096;50.998;7.098;2023-02-12T15:05:31;20.00;;;9.88;;
76284;SDS011;65096;50.998;7.098;2023-02-12T15:08:04;20.40;;;9.60;;
76284;SDS011;65096;50.998;7.098;2023-02-12T15:10:35;17.85;;;9.18;;
76284;SDS011;65096;50.998;7.098;2023-02-12T15:13:07;18.30;;;9.10;;
76284;SDS011;65096;50.998;7.098;2023-02-12T15:15:46;20.73;;;10.18;;
76284;SDS011;65096;50.998;7.098;2023-02-12T15:18:19;20.15;;;10.30;;
76284;SDS011;65096;50.998;7.098;2023-02-12T15:20:53;17.33;;;9.35;;
76284;SDS011;65096;50.998;7.098;2023-02-12T15:23:35;18.10;;;8.80;;